Dades meteomassalio
Diari Summary for Maig 14, 2017 Units:  English    Metric   Both
« Previous Day
Next Day »
Diari Semanal Mensual Anual Personalitzat
  Maxima: Minima: Mijana:
Temperatura: TemperatureC °F 11.6 °F 19.6 °F
Rosada: DewpointC °F 6.5 °F 10.2 °F
Humitat: Humidity % 28 % 60 %
Velocitat del vent: WindSpeedKMH mph 0.0 mph 4.9 mph
Racha vent: WindSpeedGustKMH mph - -
Vent:- - SSW
Pressio: PressurehPa in 1019.2 in -
Pluja: 0.0 in    
Historical Graphs
 
 
Tabular Data for Maig 14, 2017
Time Temperature Dew Point Pressure Wind Wind Speed Wind Gust Humidity Rainfall Rate (Hourly) solar Conditions
TemperatureC °F DewpointC °F PressurehPa in Calm     Humidity % HourlyPrecipMM in SolarRadiationWatts/m^2 W/m2 Conditions
00:00 15.6 °F 12.7 °F 1019.2 in Calm     83 % 0.0 in 0.0 W/m2 CLR
00:05 15.4 °F 12.9 °F 1019.2 in Calm     85 % 0.0 in 0.0 W/m2 RA
00:10 15.1 °F 12.7 °F 1019.2 in Calm     86 % 0.0 in 0.0 W/m2 CLR
00:15 14.8 °F 12.6 °F 1019.2 in SSW 5.6 mph   87 % 0.0 in 0.0 W/m2 CLR
00:20 14.6 °F 12.4 °F 1019.2 in Calm     87 % 0.0 in 0.0 W/m2 CLR
00:25 14.5 °F 12.6 °F 1019.2 in Calm     88 % 0.0 in 0.0 W/m2 CLR
00:30 14.4 °F 12.4 °F 1019.2 in Calm     88 % 0.0 in 0.0 W/m2 CLR
00:35 14.3 °F 12.6 °F 1019.2 in Calm     89 % 0.0 in 0.0 W/m2 CLR
00:40 14.3 °F 12.5 °F 1019.2 in Calm     89 % 0.0 in 0.0 W/m2 CLR
00:45 14.2 °F 12.4 °F 1019.2 in Calm     89 % 0.0 in 0.0 W/m2 CLR
00:50 14.1 °F 12.3 °F 1019.2 in Calm     89 % 0.0 in 0.0 W/m2 CLR
00:55 14.1 °F 12.4 °F 1019.5 in Calm     90 % 0.0 in 0.0 W/m2 CLR
01:00 14.1 °F 12.4 °F 1019.5 in Calm     90 % 0.0 in 0.0 W/m2 CLR
01:05 14.1 °F 12.4 °F 1019.5 in Calm     90 % 0.0 in 0.0 W/m2 CLR
01:10 14.1 °F 12.4 °F 1019.5 in Calm     90 % 0.0 in 0.0 W/m2 CLR
01:15 14.0 °F 12.4 °F 1019.5 in Calm     90 % 0.0 in 0.0 W/m2 CLR
01:20 13.9 °F 12.3 °F 1019.5 in Calm     90 % 0.0 in 0.0 W/m2 CLR
01:25 13.8 °F 12.2 °F 1019.5 in Calm     90 % 0.0 in 0.0 W/m2 CLR
01:30 13.8 °F 12.2 °F 1019.5 in Calm     90 % 0.0 in 0.0 W/m2 CLR
01:35 13.8 °F 12.2 °F 1019.5 in Calm     90 % 0.0 in 0.0 W/m2 CLR
01:40 13.7 °F 12.1 °F 1019.5 in Calm     90 % 0.0 in 0.0 W/m2 CLR
01:45 13.7 °F 12.1 °F 1019.9 in Calm     90 % 0.0 in 0.0 W/m2 CLR
01:50 13.7 °F 12.1 °F 1019.9 in Calm     90 % 0.0 in 0.0 W/m2 CLR
01:55 13.7 °F 12.1 °F 1019.9 in Calm     90 % 0.0 in 0.0 W/m2 CLR
02:00 13.7 °F 12.1 °F 1019.9 in Calm     90 % 0.0 in 0.0 W/m2 CLR
02:05 13.7 °F 12.1 °F 1019.9 in Calm     90 % 0.0 in 0.0 W/m2 CLR
02:10 13.8 °F 12.2 °F 1019.9 in Calm     90 % 0.0 in 0.0 W/m2 CLR
02:15 13.8 °F 12.2 °F 1019.9 in Calm     90 % 0.0 in 0.0 W/m2 CLR
02:20 13.7 °F 12.1 °F 1019.9 in Calm     90 % 0.0 in 0.0 W/m2 CLR
02:25 13.7 °F 12.1 °F 1020.2 in Calm     90 % 0.0 in 0.0 W/m2 CLR
02:30 13.6 °F 12.0 °F 1020.2 in Calm     90 % 0.0 in 0.0 W/m2 CLR
02:35 13.5 °F 11.9 °F 1020.2 in Calm     90 % 0.0 in 0.0 W/m2 CLR
02:40 13.4 °F 11.8 °F 1020.2 in Calm     90 % 0.0 in 0.0 W/m2 CLR
02:45 13.4 °F 11.8 °F 1020.2 in Calm     90 % 0.0 in 0.0 W/m2 CLR
02:50 13.3 °F 11.7 °F 1020.2 in Calm     90 % 0.0 in 0.0 W/m2 CLR
02:55 13.3 °F 11.7 °F 1020.5 in Calm     90 % 0.0 in 0.0 W/m2 CLR
03:00 13.2 °F 11.6 °F 1020.5 in Calm     90 % 0.0 in 0.0 W/m2 CLR
03:05 13.1 °F 11.5 °F 1020.2 in Calm     90 % 0.0 in 0.0 W/m2 CLR
03:10 13.1 °F 11.5 °F 1020.2 in Calm     90 % 0.0 in 0.0 W/m2 CLR
03:15 13.1 °F 11.5 °F 1020.2 in SW 1.6 mph 1.6 mph 90 % 0.0 in 0.0 W/m2 CLR
03:20 13.1 °F 11.5 °F 1020.2 in Calm     90 % 0.0 in 0.0 W/m2 CLR
03:25 13.2 °F 11.6 °F 1020.2 in Calm     90 % 0.0 in 0.0 W/m2 CLR
03:30 13.2 °F 11.6 °F 1020.2 in Calm     90 % 0.0 in 0.0 W/m2 CLR
03:35 13.1 °F 11.5 °F 1020.2 in Calm     90 % 0.0 in 0.0 W/m2 CLR
03:40 13.1 °F 11.4 °F 1020.2 in Calm     90 % 0.0 in 0.0 W/m2 CLR
03:45 13.0 °F 11.4 °F 1020.2 in Calm     90 % 0.0 in 0.0 W/m2 CLR
03:50 12.9 °F 11.3 °F 1020.2 in Calm     90 % 0.0 in 0.0 W/m2 CLR
03:55 12.9 °F 11.4 °F 1020.2 in Calm     91 % 0.0 in 0.0 W/m2 CLR
04:00 12.8 °F 11.2 °F 1020.2 in Calm     90 % 0.0 in 0.0 W/m2 CLR
04:05 12.9 °F 11.4 °F 1020.2 in Calm     91 % 0.0 in 0.0 W/m2 CLR
04:10 12.9 °F 11.4 °F 1020.2 in Calm     91 % 0.0 in 0.0 W/m2 CLR
04:15 12.8 °F 11.2 °F 1020.2 in Calm     90 % 0.0 in 0.0 W/m2 CLR
04:20 12.7 °F 11.2 °F 1020.2 in Calm     91 % 0.0 in 0.0 W/m2 CLR
04:25 12.6 °F 11.2 °F 1020.2 in Calm     91 % 0.0 in 0.0 W/m2 CLR
04:30 12.7 °F 11.2 °F 1020.2 in Calm     91 % 0.0 in 0.0 W/m2 CLR
04:35 12.7 °F 11.2 °F 1020.2 in Calm     91 % 0.0 in 0.0 W/m2 CLR
04:40 12.6 °F 11.1 °F 1020.5 in Calm     91 % 0.0 in 0.0 W/m2 CLR
04:45 12.5 °F 11.1 °F 1020.5 in Calm     91 % 0.0 in 0.0 W/m2 CLR
04:50 12.4 °F 11.0 °F 1020.5 in Calm     91 % 0.0 in 0.0 W/m2 CLR
04:55 12.5 °F 11.1 °F 1020.5 in Calm     91 % 0.0 in 0.0 W/m2 CLR
05:00 12.6 °F 11.1 °F 1020.5 in Calm     91 % 0.0 in 0.0 W/m2 CLR
05:05 12.6 °F 11.1 °F 1020.5 in Calm     91 % 0.0 in 0.0 W/m2 CLR
05:06 12.6 °F 11.1 °F 1020.5 in Calm     91 % 0.0 in 0.0 W/m2 CLR
05:11 12.5 °F 11.1 °F 1020.5 in Calm     91 % 0.0 in 0.0 W/m2 CLR
05:16 12.4 °F 11.0 °F 1020.5 in Calm     91 % 0.0 in 0.0 W/m2 CLR
05:21 12.4 °F 10.9 °F 1020.5 in Calm     91 % 0.0 in 0.0 W/m2 CLR
05:26 12.4 °F 11.0 °F 1020.5 in Calm     91 % 0.0 in 0.0 W/m2 CLR
05:31 12.4 °F 11.0 °F 1020.5 in Calm     91 % 0.0 in 0.0 W/m2 CLR
05:36 12.4 °F 11.0 °F 1020.5 in Calm     91 % 0.0 in 0.0 W/m2 CLR
05:41 12.4 °F 11.0 °F 1020.5 in Calm     91 % 0.0 in 0.0 W/m2 CLR
05:46 12.4 °F 10.9 °F 1020.5 in Calm     91 % 0.0 in 0.0 W/m2 CLR
05:51 12.3 °F 10.9 °F 1020.9 in Calm     91 % 0.0 in 0.0 W/m2 CLR
05:56 12.3 °F 10.9 °F 1020.9 in Calm     91 % 0.0 in 0.0 W/m2 CLR
06:01 12.3 °F 10.8 °F 1020.9 in Calm     91 % 0.0 in 0.0 W/m2 CLR
06:06 12.3 °F 10.8 °F 1020.9 in Calm     91 % 0.0 in 0.0 W/m2 CLR
06:11 12.3 °F 10.9 °F 1020.9 in Calm     91 % 0.0 in 0.0 W/m2 CLR
06:12 12.3 °F 10.9 °F 1020.5 in Calm     91 % 0.0 in 0.0 W/m2 CLR
06:17 12.3 °F 10.9 °F 1020.9 in Calm     91 % 0.0 in 0.0 W/m2 CLR
06:22 12.2 °F 10.8 °F 1020.9 in Calm     91 % 0.0 in 0.0 W/m2 CLR
06:27 12.1 °F 10.7 °F 1020.9 in Calm     91 % 0.0 in 0.0 W/m2 CLR
06:32 12.0 °F 10.6 °F 1021.2 in Calm     91 % 0.0 in 0.0 W/m2 OVC
06:37 12.0 °F 10.6 °F 1021.2 in Calm     91 % 0.0 in 0.0 W/m2 OVC
06:42 11.9 °F 10.5 °F 1021.6 in Calm     91 % 0.0 in 0.0 W/m2 OVC
06:47 11.8 °F 10.4 °F 1021.6 in Calm     91 % 0.0 in 0.0 W/m2 OVC
06:52 11.8 °F 10.3 °F 1021.6 in Calm     91 % 0.0 in 0.0 W/m2 OVC
06:57 11.7 °F 10.3 °F 1021.6 in Calm     91 % 0.0 in 5.0 W/m2 OVC
07:02 11.7 °F 10.2 °F 1021.6 in Calm     91 % 0.0 in 7.0 W/m2 BKN
07:07 11.6 °F 10.3 °F 1021.9 in Calm     92 % 0.0 in 11.0 W/m2 BKN
07:12 11.6 °F 10.3 °F 1021.9 in WSW 1.9 mph   92 % 0.0 in 19.0 W/m2 BKN
07:17 11.7 °F 10.4 °F 1021.9 in Calm     92 % 0.0 in 26.0 W/m2 BKN
07:22 11.7 °F 10.4 °F 1021.9 in Calm     92 % 0.0 in 33.0 W/m2 BKN
07:27 11.8 °F 10.6 °F 1022.2 in Calm     92 % 0.0 in 46.0 W/m2 SCT
07:32 12.0 °F 10.7 °F 1022.2 in Calm     92 % 0.0 in 72.0 W/m2 FEW
07:37 12.2 °F 10.7 °F 1022.2 in Calm     91 % 0.0 in 47.0 W/m2 SCT
07:42 12.2 °F 10.8 °F 1022.6 in Calm     91 % 0.0 in 91.0 W/m2 CLR
07:47 12.2 °F 10.8 °F 1022.6 in Calm     91 % 0.0 in 62.0 W/m2 FEW
07:52 12.3 °F 10.9 °F 1022.6 in Calm     91 % 0.0 in 114.0 W/m2 CLR
07:57 12.4 °F 11.0 °F 1022.6 in Calm     91 % 0.0 in 130.0 W/m2 CLR
08:02 12.7 °F 11.3 °F 1022.6 in Calm     91 % 0.0 in 144.0 W/m2 CLR
08:07 12.9 °F 11.5 °F 1022.6 in Calm     91 % 0.0 in 160.0 W/m2 CLR
08:12 13.4 °F 11.9 °F 1022.6 in Calm     91 % 0.0 in 179.0 W/m2 CLR
08:17 14.0 °F 12.4 °F 1022.6 in SW 3.7 mph 3.7 mph 90 % 0.0 in 193.0 W/m2 CLR
08:22 14.6 °F 12.3 °F 1022.6 in WSW 5.6 mph 5.6 mph 86 % 0.0 in 209.0 W/m2 CLR
08:27 15.2 °F 12.3 °F 1022.6 in Calm     83 % 0.0 in 223.0 W/m2 CLR
08:32 15.7 °F 12.2 °F 1022.9 in Calm     80 % 0.0 in 239.0 W/m2 CLR
08:37 16.1 °F 12.7 °F 1022.9 in Calm     80 % 0.0 in 257.0 W/m2 CLR
08:42 16.5 °F 12.7 °F 1022.9 in SSW 1.9 mph 1.9 mph 78 % 0.0 in 272.0 W/m2 CLR
08:47 16.8 °F 12.5 °F 1022.9 in SSW 5.6 mph 5.6 mph 76 % 0.0 in 288.0 W/m2 CLR
08:52 17.0 °F 11.7 °F 1022.9 in WSW 7.4 mph 7.4 mph 71 % 0.0 in 308.0 W/m2 CLR
08:57 17.2 °F 11.9 °F 1022.9 in SW 5.6 mph 5.6 mph 71 % 0.0 in 327.0 W/m2 CLR
09:02 17.6 °F 12.0 °F 1022.9 in SW 5.6 mph 5.6 mph 70 % 0.0 in 343.0 W/m2 CLR
09:07 17.9 °F 11.9 °F 1022.9 in NW 11.3 mph 11.3 mph 68 % 0.0 in 357.0 W/m2 CLR
09:12 18.1 °F 11.2 °F 1022.9 in NW 11.1 mph 11.1 mph 64 % 0.0 in 373.0 W/m2 CLR
09:17 18.2 °F 10.8 °F 1022.9 in WNW 18.5 mph 18.5 mph 62 % 0.0 in 392.0 W/m2 CLR
09:22 18.3 °F 10.9 °F 1023.2 in WNW 11.1 mph 11.1 mph 62 % 0.0 in 410.0 W/m2 CLR
09:27 18.6 °F 10.6 °F 1023.2 in NW 14.8 mph 14.8 mph 60 % 0.0 in 425.0 W/m2 CLR
09:32 18.7 °F 10.5 °F 1023.2 in WNW 16.7 mph 16.7 mph 59 % 0.0 in 439.0 W/m2 CLR
09:37 18.8 °F 10.8 °F 1023.2 in NW 18.5 mph 18.5 mph 60 % 0.0 in 454.0 W/m2 CLR
09:42 18.8 °F 10.8 °F 1023.2 in NW 14.8 mph 14.8 mph 60 % 0.0 in 60.0 W/m2 CLR
09:47 18.9 °F 10.7 °F 1023.2 in NW 13.0 mph 13.0 mph 59 % 0.0 in 169.0 W/m2 CLR
09:52 19.1 °F 10.8 °F 1023.2 in NNW 12.9 mph 12.9 mph 59 % 0.0 in 503.0 W/m2 CLR
09:57 19.2 °F 11.0 °F 1023.6 in NW 9.3 mph 9.3 mph 59 % 0.0 in 515.0 W/m2 CLR
10:02 19.2 °F 10.7 °F 1023.6 in NW 17.7 mph 17.7 mph 58 % 0.0 in 531.0 W/m2 CLR
10:07 19.3 °F 10.6 °F 1023.6 in NW 12.9 mph 12.9 mph 57 % 0.0 in 547.0 W/m2 CLR
10:12 19.4 °F 10.9 °F 1023.6 in NNW 9.3 mph 9.3 mph 58 % 0.0 in 561.0 W/m2 CLR
10:17 19.6 °F 11.1 °F 1023.6 in NW 9.3 mph 9.3 mph 58 % 0.0 in 575.0 W/m2 CLR
10:22 19.6 °F 10.8 °F 1023.6 in NW 7.4 mph   57 % 0.0 in 591.0 W/m2 CLR
10:27 19.8 °F 11.1 °F 1023.6 in NW 12.9 mph 12.9 mph 57 % 0.0 in 603.0 W/m2 CLR
10:32 20.1 °F 11.0 °F 1023.6 in NNW 16.7 mph 16.7 mph 56 % 0.0 in 619.0 W/m2 CLR
10:37 20.2 °F 11.1 °F 1023.6 in NNW 13.0 mph 13.0 mph 56 % 0.0 in 631.0 W/m2 CLR
10:42 20.4 °F 11.1 °F 1023.6 in WNW 13.0 mph 13.0 mph 55 % 0.0 in 642.0 W/m2 CLR
10:47 20.3 °F 10.7 °F 1023.6 in West 1.9 mph   54 % 0.0 in 659.0 W/m2 CLR
10:52 20.6 °F 10.9 °F 1023.6 in North 20.4 mph 20.4 mph 54 % 0.0 in 668.0 W/m2 CLR
10:57 20.8 °F 10.9 °F 1023.9 in NNW 18.5 mph 18.5 mph 53 % 0.0 in 682.0 W/m2 CLR
11:03 20.8 °F 10.6 °F 1023.9 in West 3.2 mph 3.5 mph 52 % 0.0 in 694.0 W/m2 CLR
11:08 20.7 °F 10.8 °F 1023.6 in NW 9.3 mph 11.7 mph 53 % 0.0 in 708.0 W/m2 CLR
11:13 21.0 °F 11.1 °F 1023.6 in NNE 8.0 mph 11.9 mph 53 % 0.0 in 724.0 W/m2 CLR
11:18 21.3 °F 10.5 °F 1023.6 in North 16.7 mph 16.7 mph 50 % 0.0 in 733.0 W/m2 CLR
11:23 21.3 °F 10.4 °F 1023.9 in North 11.1 mph 11.1 mph 50 % 0.0 in 745.0 W/m2 CLR
11:28 21.6 °F 11.0 °F 1023.9 in North 18.5 mph 18.5 mph 51 % 0.0 in 758.0 W/m2 CLR
11:33 21.7 °F 10.8 °F 1023.9 in NW 11.3 mph 11.3 mph 50 % 0.0 in 770.0 W/m2 CLR
11:38 21.6 °F 10.1 °F 1023.9 in NW 14.8 mph 14.8 mph 48 % 0.0 in 779.0 W/m2 CLR
11:43 21.6 °F 9.5 °F 1023.9 in NNW 13.0 mph 13.0 mph 46 % 0.0 in 788.0 W/m2 CLR
11:44 21.6 °F 9.8 °F 1023.6 in NW 6.4 mph 6.4 mph 47 % 0.0 in 789.0 W/m2 CLR
11:49 21.8 °F 9.9 °F 1023.9 in NNE 14.8 mph 14.8 mph 47 % 0.0 in 802.0 W/m2 CLR
11:54 21.8 °F 9.9 °F 1023.9 in NNW 11.1 mph 11.1 mph 47 % 0.0 in 809.0 W/m2 CLR
11:59 22.0 °F 9.8 °F 1023.9 in North 7.4 mph 7.4 mph 46 % 0.0 in 817.0 W/m2 CLR
12:04 22.2 °F 10.1 °F 1023.9 in West 7.4 mph   46 % 0.0 in 828.0 W/m2 CLR
12:09 22.3 °F 10.2 °F 1023.9 in NW 14.8 mph 14.8 mph 46 % 0.0 in 837.0 W/m2 CLR
12:14 22.4 °F 9.9 °F 1023.6 in North 14.8 mph 14.8 mph 45 % 0.0 in 842.0 W/m2 CLR
12:19 22.6 °F 9.7 °F 1023.9 in ENE 11.1 mph 11.1 mph 44 % 0.0 in 851.0 W/m2 CLR
12:24 22.9 °F 10.1 °F 1023.6 in NE 6.4 mph 6.4 mph 44 % 0.0 in 860.0 W/m2 CLR
12:29 23.1 °F 10.1 °F 1023.6 in NW 13.0 mph 13.0 mph 44 % 0.0 in 868.0 W/m2 CLR
12:34 23.1 °F 9.8 °F 1023.6 in Calm     43 % 0.0 in 874.0 W/m2 CLR
12:39 23.3 °F 10.4 °F 1023.6 in North 11.3 mph 11.3 mph 44 % 0.0 in 877.0 W/m2 CLR
12:44 23.3 °F 9.7 °F 1023.6 in North 11.1 mph 11.1 mph 42 % 0.0 in 888.0 W/m2 CLR
12:49 23.3 °F 9.7 °F 1023.6 in North 16.7 mph 16.7 mph 42 % 0.0 in 888.0 W/m2 CLR
12:54 23.3 °F 9.7 °F 1023.6 in North 16.7 mph 16.7 mph 42 % 0.0 in 893.0 W/m2 CLR
12:59 23.3 °F 9.7 °F 1023.6 in NW 18.5 mph 18.5 mph 42 % 0.0 in 900.0 W/m2 CLR
13:04 23.5 °F 9.8 °F 1023.6 in Calm   1.6 mph 42 % 0.0 in 907.0 W/m2 CLR
13:09 23.9 °F 9.8 °F 1023.6 in North 16.7 mph 16.7 mph 41 % 0.0 in 909.0 W/m2 CLR
13:14 23.7 °F 10.0 °F 1023.6 in ENE 13.0 mph 13.0 mph 42 % 0.0 in 914.0 W/m2 CLR
13:19 23.8 °F 9.4 °F 1023.6 in WNW 16.7 mph 16.7 mph 40 % 0.0 in 926.0 W/m2 CLR
13:24 23.9 °F 9.4 °F 1023.6 in NNW 20.4 mph 20.4 mph 40 % 0.0 in 923.0 W/m2 CLR
13:29 23.9 °F 9.5 °F 1023.2 in NW 3.2 mph   40 % 0.0 in 926.0 W/m2 CLR
13:34 23.9 °F 9.1 °F 1023.6 in Calm     39 % 0.0 in 930.0 W/m2 CLR
13:39 24.2 °F 9.3 °F 1023.2 in Calm     39 % 0.0 in 928.0 W/m2 CLR
13:45 24.3 °F 9.5 °F 1023.2 in NE 14.8 mph 14.8 mph 39 % 0.0 in 940.0 W/m2 CLR
13:50 24.4 °F 9.9 °F 1023.2 in SW 11.1 mph 11.1 mph 40 % 0.0 in 946.0 W/m2 CLR
13:54 24.7 °F 9.4 °F 1023.2 in North 7.4 mph 7.4 mph 38 % 0.0 in 998.0 W/m2 CLR
14:00 24.9 °F 9.2 °F 1023.2 in West 9.7 mph 9.7 mph 37 % 0.0 in 984.0 W/m2 CLR
14:05 24.8 °F 9.5 °F 1023.2 in West 3.7 mph 3.7 mph 38 % 0.0 in 979.0 W/m2 CLR
14:09 24.8 °F 9.1 °F 1023.2 in West 9.3 mph 9.3 mph 37 % 0.0 in 1000.0 W/m2 CLR
14:15 24.6 °F 8.9 °F 1023.2 in NNW 9.7 mph 9.7 mph 37 % 0.0 in 1000.0 W/m2 CLR
14:20 24.8 °F 8.7 °F 1023.2 in North 20.4 mph 20.4 mph 36 % 0.0 in 1032.0 W/m2 CLR
14:25 24.8 °F 9.1 °F 1023.2 in ENE 11.1 mph 11.1 mph 37 % 0.0 in 1013.0 W/m2 CLR
14:30 25.1 °F 8.5 °F 1023.2 in East 3.7 mph 3.7 mph 35 % 0.0 in 1058.0 W/m2 CLR
14:35 25.3 °F 8.7 °F 1022.9 in Calm     35 % 0.0 in 427.0 W/m2 CLR
14:40 25.1 °F 9.0 °F 1022.9 in NNW 6.4 mph 6.4 mph 36 % 0.0 in 202.0 W/m2 CLR
14:45 24.9 °F 8.8 °F 1022.9 in NW 11.1 mph 11.1 mph 36 % 0.0 in 262.0 W/m2 CLR
14:50 24.6 °F 8.9 °F 1022.9 in Calm     37 % 0.0 in 1056.0 W/m2 CLR
14:55 24.9 °F 8.8 °F 1022.9 in Calm     36 % 0.0 in 1025.0 W/m2 CLR
15:00 25.1 °F 8.6 °F 1022.9 in SE 9.3 mph 9.3 mph 35 % 0.0 in 1013.0 W/m2 CLR
15:05 25.1 °F 8.6 °F 1022.9 in Calm     35 % 0.0 in 988.0 W/m2 CLR
15:10 25.4 °F 8.8 °F 1022.9 in SE 4.8 mph 4.8 mph 35 % 0.0 in 227.0 W/m2 CLR
15:15 25.4 °F 8.8 °F 1022.9 in Calm   0.2 mph 35 % 0.0 in 1007.0 W/m2 CLR
15:20 25.4 °F 8.4 °F 1022.6 in Calm     34 % 0.0 in 232.0 W/m2 CLR
15:25 25.6 °F 9.4 °F 1022.6 in ENE 5.6 mph 5.6 mph 36 % 0.0 in 905.0 W/m2 CLR
15:30 25.8 °F 8.8 °F 1022.6 in ENE 14.8 mph 14.8 mph 34 % 0.0 in 893.0 W/m2 CLR
15:35 25.8 °F 8.8 °F 1022.6 in ESE 5.6 mph 5.6 mph 34 % 0.0 in 879.0 W/m2 CLR
15:40 25.8 °F 8.3 °F 1022.6 in East 9.3 mph 9.3 mph 33 % 0.0 in 886.0 W/m2 CLR
15:45 25.8 °F 8.8 °F 1022.6 in NE 9.3 mph   34 % 0.0 in 896.0 W/m2 CLR
15:50 26.1 °F 8.5 °F 1022.6 in East 11.1 mph 11.1 mph 33 % 0.0 in 870.0 W/m2 CLR
15:51 26.1 °F 8.5 °F 1022.6 in NE 11.1 mph 11.1 mph 33 % 0.0 in 867.0 W/m2 CLR
15:56 26.1 °F 8.6 °F 1022.2 in NW 5.6 mph 5.6 mph 33 % 0.0 in 872.0 W/m2 CLR
16:01 26.6 °F 8.9 °F 1022.2 in NW 11.3 mph 11.3 mph 33 % 0.0 in 856.0 W/m2 CLR
16:06 26.8 °F 8.7 °F 1022.2 in NNW 7.4 mph 7.4 mph 32 % 0.0 in 835.0 W/m2 CLR
16:11 26.8 °F 8.7 °F 1022.2 in NNE 9.7 mph 9.7 mph 32 % 0.0 in 837.0 W/m2 CLR
16:16 26.9 °F 9.3 °F 1022.2 in NNE 12.9 mph 12.9 mph 33 % 0.0 in 849.0 W/m2 CLR
16:21 26.3 °F 8.3 °F 1022.2 in NNW 16.7 mph 16.7 mph 32 % 0.0 in 113.0 W/m2 CLR
16:26 25.8 °F 7.9 °F 1022.2 in Calm     32 % 0.0 in 134.0 W/m2 CLR
16:32 25.7 °F 7.8 °F 1022.2 in NE 5.6 mph 5.6 mph 32 % 0.0 in 795.0 W/m2 CLR
16:37 25.9 °F 7.9 °F 1022.2 in Calm     32 % 0.0 in 773.0 W/m2 CLR
16:42 25.7 °F 7.7 °F 1021.9 in Calm     32 % 0.0 in 118.0 W/m2 CLR
16:47 25.5 °F 8.1 °F 1021.9 in Calm     33 % 0.0 in 162.0 W/m2 CLR
16:52 25.7 °F 9.1 °F 1021.9 in ENE 6.4 mph 6.4 mph 35 % 0.0 in 770.0 W/m2 CLR
16:57 26.4 °F 8.8 °F 1021.9 in NE 5.6 mph 5.6 mph 33 % 0.0 in 740.0 W/m2 CLR
17:02 26.7 °F 8.1 °F 1021.6 in NE 14.8 mph 14.8 mph 31 % 0.0 in 613.0 W/m2 CLR
17:07 26.7 °F 8.2 °F 1021.6 in NNE 9.3 mph 9.3 mph 31 % 0.0 in 626.0 W/m2 CLR
17:12 26.7 °F 7.7 °F 1021.6 in NNE 5.6 mph 5.6 mph 30 % 0.0 in 729.0 W/m2 CLR
17:17 26.8 °F 7.7 °F 1021.6 in NNE 5.6 mph 5.6 mph 30 % 0.0 in 636.0 W/m2 CLR
17:22 26.8 °F 7.7 °F 1021.6 in NW 8.0 mph 8.0 mph 30 % 0.0 in 380.0 W/m2 CLR
17:27 26.6 °F 8.1 °F 1021.6 in NNE 13.0 mph 13.0 mph 31 % 0.0 in 561.0 W/m2 CLR
17:32 26.5 °F 8.0 °F 1021.6 in North 18.5 mph 18.5 mph 31 % 0.0 in 628.0 W/m2 CLR
17:37 26.6 °F 8.1 °F 1021.6 in NNE 11.3 mph 11.3 mph 31 % 0.0 in 555.0 W/m2 CLR
17:42 26.6 °F 8.1 °F 1021.6 in NE 16.7 mph 16.7 mph 31 % 0.0 in 584.0 W/m2 CLR
17:47 26.6 °F 8.1 °F 1021.6 in NNW 14.8 mph 14.8 mph 31 % 0.0 in 624.0 W/m2 CLR
17:52 26.8 °F 8.2 °F 1021.6 in North 9.3 mph 9.3 mph 31 % 0.0 in 601.0 W/m2 CLR
17:57 26.9 °F 7.9 °F 1021.6 in NNE 7.4 mph 7.4 mph 30 % 0.0 in 578.0 W/m2 CLR
18:02 26.9 °F 8.4 °F 1021.6 in NNE 11.1 mph 11.1 mph 31 % 0.0 in 541.0 W/m2 CLR
18:07 26.9 °F 8.3 °F 1021.6 in NNE 16.7 mph 16.7 mph 31 % 0.0 in 515.0 W/m2 CLR
18:12 26.9 °F 7.8 °F 1021.6 in NE 3.7 mph   30 % 0.0 in 494.0 W/m2 CLR
18:17 26.9 °F 7.9 °F 1021.6 in NNE 16.1 mph 16.1 mph 30 % 0.0 in 471.0 W/m2 CLR
18:22 27.1 °F 8.0 °F 1021.9 in North 13.0 mph 13.0 mph 30 % 0.0 in 454.0 W/m2 CLR
18:27 27.0 °F 7.4 °F 1021.9 in NE 5.6 mph 5.6 mph 29 % 0.0 in 438.0 W/m2 CLR
18:32 26.9 °F 7.3 °F 1021.9 in ENE 1.9 mph 1.9 mph 29 % 0.0 in 420.0 W/m2 CLR
18:37 26.8 °F 7.8 °F 1021.9 in NNW 5.6 mph 5.6 mph 30 % 0.0 in 401.0 W/m2 CLR
18:42 27.1 °F 7.5 °F 1021.9 in North 14.8 mph 14.8 mph 29 % 0.0 in 387.0 W/m2 CLR
18:47 27.0 °F 7.4 °F 1021.9 in North 22.2 mph 22.2 mph 29 % 0.0 in 371.0 W/m2 CLR
18:52 26.8 °F 6.8 °F 1021.9 in NNW 19.3 mph 19.3 mph 28 % 0.0 in 355.0 W/m2 CLR
18:57 26.7 °F 7.2 °F 1021.9 in North 5.6 mph 5.6 mph 29 % 0.0 in 336.0 W/m2 CLR
19:02 26.6 °F 7.1 °F 1021.9 in North 18.5 mph 18.5 mph 29 % 0.0 in 323.0 W/m2 CLR
19:07 26.6 °F 7.6 °F 1021.9 in NNE 9.3 mph 9.3 mph 30 % 0.0 in 309.0 W/m2 CLR
19:12 26.6 °F 7.1 °F 1021.9 in North 3.7 mph 3.7 mph 29 % 0.0 in 292.0 W/m2 CLR
19:17 26.7 °F 7.2 °F 1021.9 in Calm     29 % 0.0 in 276.0 W/m2 CLR
19:22 26.7 °F 7.2 °F 1021.6 in NE 6.4 mph 6.4 mph 29 % 0.0 in 258.0 W/m2 CLR
19:27 26.6 °F 6.6 °F 1021.9 in North 5.6 mph   28 % 0.0 in 243.0 W/m2 CLR
19:32 26.6 °F 7.1 °F 1021.9 in Calm     29 % 0.0 in 225.0 W/m2 CLR
19:37 26.7 °F 6.7 °F 1021.9 in Calm     28 % 0.0 in 207.0 W/m2 CLR
19:42 26.9 °F 7.3 °F 1021.9 in NNW 5.6 mph 5.6 mph 29 % 0.0 in 188.0 W/m2 CLR
19:47 26.8 °F 6.7 °F 1021.9 in ENE 1.9 mph 1.9 mph 28 % 0.0 in 171.0 W/m2 CLR
19:52 26.6 °F 6.6 °F 1021.9 in Calm     28 % 0.0 in 153.0 W/m2 CLR
19:57 26.3 °F 6.9 °F 1021.9 in ENE 4.8 mph 4.8 mph 29 % 0.0 in 135.0 W/m2 CLR
20:02 26.1 °F 6.7 °F 1021.9 in NE 3.7 mph 3.7 mph 29 % 0.0 in 120.0 W/m2 CLR
20:07 26.0 °F 6.6 °F 1021.9 in Calm     29 % 0.0 in 102.0 W/m2 CLR
20:12 26.0 °F 6.6 °F 1022.2 in Calm     29 % 0.0 in 88.0 W/m2 CLR
20:17 25.9 °F 6.5 °F 1022.2 in NE 3.7 mph 3.7 mph 29 % 0.0 in 74.0 W/m2 FEW
20:22 25.8 °F 6.9 °F 1022.2 in ENE 5.6 mph 5.6 mph 30 % 0.0 in 62.0 W/m2 SCT
20:23 25.7 °F 6.8 °F 1022.2 in NE 8.0 mph 8.0 mph 30 % 0.0 in 60.0 W/m2 SCT
20:28 25.6 °F 6.7 °F 1022.2 in NE 5.6 mph 5.6 mph 30 % 0.0 in 39.0 W/m2 BKN
20:33 25.4 °F 7.0 °F 1022.2 in Calm     31 % 0.0 in 35.0 W/m2 BKN
20:38 25.3 °F 6.9 °F 1022.2 in Calm     31 % 0.0 in 26.0 W/m2 BKN
20:43 25.2 °F 7.3 °F 1022.6 in Calm     32 % 0.0 in 19.0 W/m2 BKN
20:48 24.9 °F 7.5 °F 1022.6 in Calm     33 % 0.0 in 14.0 W/m2 BKN
20:53 24.5 °F 7.2 °F 1022.6 in Calm     33 % 0.0 in 9.0 W/m2 BKN
20:58 24.3 °F 7.0 °F 1022.9 in Calm     33 % 0.0 in 7.0 W/m2 BKN
21:03 24.2 °F 9.3 °F 1022.9 in ESE 5.6 mph 5.6 mph 39 % 0.0 in 5.0 W/m2 OVC
21:08 23.9 °F 9.8 °F 1022.9 in Calm     41 % 0.0 in 0.0 W/m2 OVC
21:13 23.7 °F 10.4 °F 1022.9 in SE 9.3 mph 9.3 mph 43 % 0.0 in 0.0 W/m2 OVC
21:18 23.6 °F 10.9 °F 1022.9 in SSE 9.7 mph 9.7 mph 45 % 0.0 in 0.0 W/m2 OVC
21:23 23.4 °F 10.8 °F 1022.9 in SE 3.7 mph 3.7 mph 45 % 0.0 in 0.0 W/m2 CLR
21:28 23.2 °F 10.9 °F 1023.2 in Calm     46 % 0.0 in 0.0 W/m2 CLR
21:33 22.9 °F 11.7 °F 1023.2 in SE 5.6 mph 5.6 mph 49 % 0.0 in 0.0 W/m2 CLR
21:38 22.8 °F 11.6 °F 1023.2 in SSE 13.0 mph 13.0 mph 49 % 0.0 in 0.0 W/m2 CLR
21:43 22.8 °F 11.6 °F 1023.2 in SSE 7.4 mph 7.4 mph 49 % 0.0 in 0.0 W/m2 CLR
21:48 22.7 °F 11.7 °F 1023.2 in SSE 9.3 mph 9.3 mph 50 % 0.0 in 0.0 W/m2 CLR
21:53 22.5 °F 11.8 °F 1023.6 in SSE 11.1 mph 11.1 mph 51 % 0.0 in 0.0 W/m2 CLR
21:58 22.3 °F 12.0 °F 1023.6 in SSE 11.1 mph 11.1 mph 52 % 0.0 in 0.0 W/m2 CLR
22:03 22.2 °F 11.9 °F 1023.6 in South 5.6 mph 5.6 mph 52 % 0.0 in 0.0 W/m2 CLR
22:08 22.1 °F 11.7 °F 1023.6 in South 5.6 mph 5.6 mph 52 % 0.0 in 0.0 W/m2 CLR
22:13 21.9 °F 11.9 °F 1023.9 in South 3.7 mph 3.7 mph 53 % 0.0 in 0.0 W/m2 CLR
22:18 21.8 °F 12.1 °F 1023.9 in South 5.6 mph 5.6 mph 54 % 0.0 in 0.0 W/m2 CLR
22:23 21.7 °F 12.0 °F 1023.9 in Calm     54 % 0.0 in 0.0 W/m2 CLR
22:28 21.6 °F 11.9 °F 1023.9 in Calm     54 % 0.0 in 0.0 W/m2 CLR
22:33 21.5 °F 11.8 °F 1023.9 in Calm     54 % 0.0 in 0.0 W/m2 CLR
22:38 21.2 °F 11.8 °F 1024.3 in Calm     55 % 0.0 in 0.0 W/m2 CLR
22:43 21.0 °F 11.6 °F 1024.3 in Calm     55 % 0.0 in 0.0 W/m2 CLR
22:48 20.8 °F 11.7 °F 1024.3 in Calm     56 % 0.0 in 0.0 W/m2 CLR
22:53 20.7 °F 11.6 °F 1024.3 in Calm     56 % 0.0 in 0.0 W/m2 CLR
22:58 20.4 °F 11.8 °F 1024.3 in Calm     58 % 0.0 in 0.0 W/m2 CLR
23:03 20.2 °F 11.7 °F 1024.3 in Calm     58 % 0.0 in 0.0 W/m2 CLR
23:08 20.1 °F 11.8 °F 1024.6 in Calm     59 % 0.0 in 0.0 W/m2 CLR
23:13 19.9 °F 11.6 °F 1024.6 in Calm     59 % 0.0 in 0.0 W/m2 CLR
23:18 19.8 °F 11.8 °F 1024.6 in Calm     60 % 0.0 in 0.0 W/m2 CLR
23:23 19.8 °F 11.8 °F 1024.6 in Calm     60 % 0.0 in 0.0 W/m2 CLR
23:28 19.7 °F 11.7 °F 1024.6 in Calm     60 % 0.0 in 0.0 W/m2 CLR
23:33 19.6 °F 11.8 °F 1024.6 in Calm     61 % 0.0 in 0.0 W/m2 CLR
23:38 19.4 °F 11.7 °F 1024.9 in Calm     61 % 0.0 in 0.0 W/m2 CLR
23:43 19.3 °F 11.6 °F 1024.9 in Calm     61 % 0.0 in 0.0 W/m2 CLR
23:48 19.2 °F 11.7 °F 1024.9 in Calm     62 % 0.0 in 0.0 W/m2 CLR
23:53 19.1 °F 11.6 °F 1024.9 in Calm     62 % 0.0 in 0.0 W/m2 CLR
23:58 19.1 °F 11.6 °F 1024.9 in SW 1.9 mph 1.9 mph 62 % 0.0 in 0.0 W/m2 CLR
Lo Temps de Massalio
Compliments of Weather Underground - 1.25 mb